createdAt,value
2023-10-11T00:00:41.726Z,98106.63
2023-10-11T00:03:29.863Z,98107.94
2023-10-11T00:05:57.099Z,98096.78
2023-10-11T00:08:27.311Z,98103.25
2023-10-11T00:10:56.778Z,98097.75
2023-10-11T00:13:34.283Z,98101.63
2023-10-11T00:16:08.819Z,98090.66
2023-10-11T00:18:38.189Z,98086.84
2023-10-11T00:21:17.388Z,98085.72
2023-10-11T00:23:52.030Z,98077.97
2023-10-11T00:26:19.884Z,98081.44
2023-10-11T00:28:46.746Z,98081.63
2023-10-11T00:31:21.125Z,98072.28
2023-10-11T00:33:48.876Z,98077.75
2023-10-11T00:36:27.267Z,98077.19
2023-10-11T00:38:53.910Z,98080.19
2023-10-11T00:41:22.019Z,98084.19
2023-10-11T00:43:55.161Z,98076.38
2023-10-11T00:46:48.875Z,98073.41
2023-10-11T00:49:15.877Z,98075.88
2023-10-11T00:51:48.161Z,98068.41
2023-10-11T00:54:17.927Z,98068.31
2023-10-11T00:56:46.773Z,98064.19
2023-10-11T00:59:17.852Z,98068.78
2023-10-11T01:01:46.380Z,98069.00
2023-10-11T01:04:17.391Z,98071.59
2023-10-11T01:06:44.758Z,98068.69
2023-10-11T01:09:27.465Z,98063.38
2023-10-11T01:11:54.266Z,98066.94
2023-10-11T01:14:21.063Z,98065.25
2023-10-11T01:16:47.760Z,98060.47
2023-10-11T01:19:18.199Z,98062.31
2023-10-11T01:21:53.202Z,98055.72
2023-10-11T01:24:20.031Z,98052.81
2023-10-11T01:26:46.975Z,98048.06
2023-10-11T01:29:13.876Z,98050.22
2023-10-11T01:31:40.694Z,98046.59
2023-10-11T01:34:07.827Z,98039.50
2023-10-11T01:36:35.687Z,98039.84
2023-10-11T01:39:04.835Z,98035.78
2023-10-11T01:41:31.505Z,98039.25
2023-10-11T01:43:58.594Z,98033.53
2023-10-11T01:46:27.910Z,98033.81
2023-10-11T01:48:56.587Z,98033.28
2023-10-11T01:51:30.867Z,98038.75
2023-10-11T01:54:01.282Z,98031.81
2023-10-11T01:56:29.113Z,98033.69
2023-10-11T01:59:02.747Z,98033.69
2023-10-11T02:01:39.999Z,98038.47
2023-10-11T02:04:21.518Z,98036.81
2023-10-11T02:06:50.029Z,98033.69
2023-10-11T02:09:21.702Z,98032.38
2023-10-11T02:11:53.707Z,98037.22
2023-10-11T02:14:21.242Z,98032.22
2023-10-11T02:16:47.886Z,98027.13
2023-10-11T02:19:17.037Z,98027.84
2023-10-11T02:21:46.796Z,98031.56
2023-10-11T02:24:16.468Z,98040.09
2023-10-11T02:26:50.675Z,98034.78
2023-10-11T02:29:21.841Z,98036.06
2023-10-11T02:31:59.679Z,98038.97
2023-10-11T02:34:26.504Z,98044.47
2023-10-11T02:37:04.479Z,98045.75
2023-10-11T02:39:34.455Z,98041.53
2023-10-11T02:42:01.989Z,98036.25
2023-10-11T02:44:28.719Z,98039.63
2023-10-11T02:46:55.555Z,98042.44
2023-10-11T02:49:22.888Z,98042.78
2023-10-11T02:51:54.489Z,98031.66
2023-10-11T02:54:22.614Z,98046.81
2023-10-11T02:56:49.295Z,98042.63
2023-10-11T02:59:26.077Z,98038.47
2023-10-11T03:02:00.809Z,98034.19
2023-10-11T03:04:41.617Z,98033.31
2023-10-11T03:07:24.756Z,98035.53
2023-10-11T03:09:52.319Z,98040.44
2023-10-11T03:12:32.945Z,98037.50
2023-10-11T03:15:07.583Z,98040.16
2023-10-11T03:17:41.788Z,98040.34
2023-10-11T03:20:28.124Z,98038.53
2023-10-11T03:22:54.738Z,98041.53
2023-10-11T03:25:21.389Z,98045.53
2023-10-11T03:27:50.669Z,98040.56
2023-10-11T03:30:18.273Z,98043.31
2023-10-11T03:32:45.278Z,98045.50
2023-10-11T03:35:17.333Z,98040.34
2023-10-11T03:37:58.407Z,98036.31
2023-10-11T03:40:36.462Z,98034.47
2023-10-11T03:43:15.921Z,98024.94
2023-10-11T03:45:50.918Z,98027.19
2023-10-11T03:48:19.623Z,98032.00
2023-10-11T03:50:49.450Z,98022.00
2023-10-11T03:53:17.084Z,98020.22
2023-10-11T03:55:47.954Z,98023.34
2023-10-11T03:58:38.842Z,98022.44
2023-10-11T04:01:18.171Z,98022.16
2023-10-11T04:03:45.023Z,98026.75
2023-10-11T04:06:15.625Z,98027.06
2023-10-11T04:09:04.203Z,98037.06
2023-10-11T04:11:56.333Z,98039.81
2023-10-11T04:14:40.970Z,98026.69
2023-10-11T04:17:18.426Z,98030.75
2023-10-11T04:19:45.193Z,98025.50
2023-10-11T04:22:17.427Z,98038.09
2023-10-11T04:24:46.669Z,98038.47
2023-10-11T04:27:22.390Z,98033.22
2023-10-11T04:29:51.674Z,98033.41
2023-10-11T04:32:40.537Z,98026.78
2023-10-11T04:35:23.443Z,98027.91
2023-10-11T04:38:02.600Z,98021.88
2023-10-11T04:40:50.377Z,98017.72
2023-10-11T04:43:25.655Z,98022.31
2023-10-11T04:45:57.442Z,98027.97
2023-10-11T04:48:38.612Z,98032.75
2023-10-11T04:51:22.627Z,98038.41
2023-10-11T04:53:52.759Z,98038.94
2023-10-11T04:56:38.761Z,98039.69
2023-10-11T04:59:30.878Z,98045.56
2023-10-11T05:02:03.832Z,98043.69
2023-10-11T05:04:34.755Z,98047.38
2023-10-11T05:07:09.399Z,98045.41
2023-10-11T05:09:40.877Z,98049.97
2023-10-11T05:12:14.087Z,98046.00
2023-10-11T05:14:42.199Z,98053.84
2023-10-11T05:17:16.562Z,98056.25
2023-10-11T05:20:16.781Z,98050.09
2023-10-11T05:22:43.402Z,98050.25
2023-10-11T05:25:34.300Z,98054.47
2023-10-11T05:28:20.110Z,98051.00
2023-10-11T05:31:02.198Z,98058.09
2023-10-11T05:33:52.476Z,98059.22
2023-10-11T05:36:40.233Z,98059.03
2023-10-11T05:39:25.590Z,98060.31
2023-10-11T05:42:10.823Z,98061.03
2023-10-11T05:44:56.114Z,98068.16
2023-10-11T05:47:41.418Z,98059.38
2023-10-11T05:50:27.334Z,98072.16
2023-10-11T05:52:56.958Z,98073.66
2023-10-11T05:55:24.212Z,98068.53
2023-10-11T05:57:52.091Z,98075.09
2023-10-11T06:00:28.172Z,98084.59
2023-10-11T06:02:56.306Z,98079.09
2023-10-11T06:05:26.021Z,98078.00
2023-10-11T06:08:04.927Z,98088.34
2023-10-11T06:10:42.697Z,98083.94
2023-10-11T06:13:14.850Z,98078.78
2023-10-11T06:15:46.614Z,98081.66
2023-10-11T06:18:33.278Z,98084.56
2023-10-11T06:21:06.517Z,98087.81
2023-10-11T06:23:34.636Z,98085.19
2023-10-11T06:26:21.245Z,98088.81
2023-10-11T06:28:48.877Z,98085.81
2023-10-11T06:31:16.034Z,98089.47
2023-10-11T06:33:45.982Z,98099.13
2023-10-11T06:36:15.904Z,98103.00
2023-10-11T06:38:43.186Z,98107.50
2023-10-11T06:41:36.294Z,98116.25
2023-10-11T06:44:02.990Z,98111.69
2023-10-11T06:46:31.374Z,98118.41
2023-10-11T06:48:59.926Z,98116.00
2023-10-11T06:51:26.650Z,98116.00
2023-10-11T06:53:58.330Z,98121.28
2023-10-11T06:56:27.155Z,98117.25
2023-10-11T06:58:53.930Z,98119.38
2023-10-11T07:01:20.596Z,98125.34
2023-10-11T07:03:49.081Z,98120.56
2023-10-11T07:06:18.020Z,98122.44
2023-10-11T07:08:50.869Z,98117.63
2023-10-11T07:11:51.419Z,98116.63
2023-10-11T07:14:19.577Z,98115.84
2023-10-11T07:16:50.611Z,98123.53
2023-10-11T07:19:17.781Z,98117.63
2023-10-11T07:21:47.622Z,98115.03
2023-10-11T07:24:21.756Z,98109.72
2023-10-11T07:26:49.626Z,98116.91
2023-10-11T07:29:18.461Z,98115.63
2023-10-11T07:31:51.505Z,98118.28
2023-10-11T07:34:20.463Z,98116.44
2023-10-11T07:36:51.139Z,98113.84
2023-10-11T07:39:26.137Z,98117.53
2023-10-11T07:42:06.663Z,98125.00
2023-10-11T07:44:38.100Z,98122.00
2023-10-11T07:47:16.073Z,98119.03
2023-10-11T07:49:45.903Z,98112.69
2023-10-11T07:52:20.647Z,98114.94
2023-10-11T07:54:49.308Z,98115.09
2023-10-11T07:57:16.920Z,98111.63
2023-10-11T07:59:45.534Z,98117.28
2023-10-11T08:02:28.526Z,98109.34
2023-10-11T08:04:55.482Z,98110.69
2023-10-11T08:07:23.908Z,98110.25
2023-10-11T08:09:54.355Z,98109.03
2023-10-11T08:12:25.063Z,98109.31
2023-10-11T08:14:54.947Z,98110.34
2023-10-11T08:17:22.774Z,98106.34
2023-10-11T08:19:55.255Z,98101.00
2023-10-11T08:22:24.120Z,98105.09
2023-10-11T08:24:53.029Z,98101.50
2023-10-11T08:27:29.431Z,98097.31
2023-10-11T08:30:19.043Z,98097.50
2023-10-11T08:32:48.238Z,98100.88
2023-10-11T08:35:27.570Z,98097.97
2023-10-11T08:37:55.616Z,98093.34
2023-10-11T08:40:30.761Z,98093.22
2023-10-11T08:43:03.047Z,98081.66
2023-10-11T08:45:34.735Z,98089.75
2023-10-11T08:48:02.638Z,98083.53
2023-10-11T08:50:36.832Z,98083.66
2023-10-11T08:53:10.743Z,98083.97
2023-10-11T08:55:41.889Z,98079.03
2023-10-11T08:58:15.976Z,98075.13
2023-10-11T09:00:48.970Z,98076.28
2023-10-11T09:03:20.256Z,98065.81
2023-10-11T09:05:48.667Z,98072.03
2023-10-11T09:08:23.340Z,98064.06
2023-10-11T09:10:52.532Z,98062.72
2023-10-11T09:13:27.682Z,98061.25
2023-10-11T09:15:55.785Z,98055.28
2023-10-11T09:18:26.305Z,98067.19
2023-10-11T09:21:09.788Z,98064.56
2023-10-11T09:23:36.658Z,98062.66
2023-10-11T09:26:04.139Z,98064.00
2023-10-11T09:28:34.971Z,98069.56
2023-10-11T09:31:11.240Z,98065.94
2023-10-11T09:33:42.581Z,98058.81
2023-10-11T09:36:10.477Z,98067.47
2023-10-11T09:38:43.053Z,98063.81
2023-10-11T09:41:09.941Z,98060.59
2023-10-11T09:43:47.087Z,98056.34
2023-10-11T09:46:15.220Z,98063.63
2023-10-11T09:48:42.962Z,98052.41
2023-10-11T09:51:15.278Z,98055.44
2023-10-11T09:53:43.454Z,98056.28
2023-10-11T09:56:37.544Z,98057.88
2023-10-11T09:59:48.212Z,98055.50
2023-10-11T10:02:24.419Z,98066.78
2023-10-11T10:04:53.967Z,98052.34
2023-10-11T10:07:44.893Z,98055.50
2023-10-11T10:10:14.720Z,98047.00
2023-10-11T10:12:56.569Z,98050.03
2023-10-11T10:15:24.740Z,98046.44
2023-10-11T10:18:06.759Z,98042.03
2023-10-11T10:20:43.203Z,98038.53
2023-10-11T10:23:15.894Z,98040.38
2023-10-11T10:25:49.708Z,98037.03
2023-10-11T10:28:36.078Z,98040.75
2023-10-11T10:31:21.275Z,98041.13
2023-10-11T10:33:52.872Z,98033.09
2023-10-11T10:36:22.193Z,98041.00
2023-10-11T10:39:24.336Z,98037.91
2023-10-11T10:42:13.316Z,98025.91
2023-10-11T10:44:52.046Z,98016.66
2023-10-11T10:47:22.836Z,98023.06
2023-10-11T10:49:52.338Z,98018.00
2023-10-11T10:52:20.208Z,98014.13
2023-10-11T10:55:03.555Z,98014.38
2023-10-11T10:57:34.774Z,98013.16
2023-10-11T11:00:21.760Z,98010.03
2023-10-11T11:02:48.990Z,97998.44
2023-10-11T11:05:15.894Z,98001.44
2023-10-11T11:07:48.918Z,98004.09
2023-10-11T11:10:20.999Z,98000.81
2023-10-11T11:12:49.184Z,97997.19
2023-10-11T11:15:22.210Z,97984.50
2023-10-11T11:17:51.444Z,97993.66
2023-10-11T11:20:22.661Z,97984.00
2023-10-11T11:22:53.657Z,97982.66
2023-10-11T11:25:26.323Z,97983.53
2023-10-11T11:28:26.408Z,97975.06
2023-10-11T11:30:53.134Z,97968.75
2023-10-11T11:33:31.215Z,97964.47
2023-10-11T11:35:58.020Z,97962.34
2023-10-11T11:38:24.837Z,97964.47
2023-10-11T11:40:52.662Z,97960.41
2023-10-11T11:43:21.693Z,97951.28
2023-10-11T11:45:52.648Z,97948.81
2023-10-11T11:48:25.244Z,97942.53
2023-10-11T11:50:52.189Z,97946.88
2023-10-11T11:53:20.086Z,97946.34
2023-10-11T11:55:47.688Z,97941.53
2023-10-11T11:58:17.288Z,97937.13
2023-10-11T12:00:49.770Z,97933.66
2023-10-11T12:03:16.547Z,97929.56
2023-10-11T12:05:43.367Z,97921.72
2023-10-11T12:08:19.692Z,97922.25
2023-10-11T12:10:51.245Z,97918.25
2023-10-11T12:13:27.511Z,97918.25
2023-10-11T12:15:58.789Z,97913.41
2023-10-11T12:18:33.766Z,97912.50
2023-10-11T12:21:12.209Z,97914.75
2023-10-11T12:23:46.955Z,97908.25
2023-10-11T12:26:21.744Z,97902.69
2023-10-11T12:28:49.558Z,97902.91
2023-10-11T12:31:18.264Z,97902.38
2023-10-11T12:33:45.439Z,97895.88
2023-10-11T12:36:12.848Z,97896.69
2023-10-11T12:38:40.907Z,97898.75
2023-10-11T12:41:08.690Z,97893.03
2023-10-11T12:43:35.444Z,97897.81
2023-10-11T12:46:02.355Z,97897.31
2023-10-11T12:48:29.389Z,97899.03
2023-10-11T12:50:59.246Z,97894.81
2023-10-11T12:53:30.013Z,97892.88
2023-10-11T12:55:56.822Z,97891.72
2023-10-11T12:58:29.005Z,97895.13
2023-10-11T13:01:06.728Z,97888.53
2023-10-11T13:03:39.421Z,97888.41
2023-10-11T13:06:10.896Z,97888.00
2023-10-11T13:08:40.990Z,97883.97
2023-10-11T13:11:13.037Z,97878.44
2023-10-11T13:13:42.028Z,97874.38
2023-10-11T13:16:09.528Z,97874.91
2023-10-11T13:18:41.985Z,97869.56
2023-10-11T13:21:13.180Z,97870.00
2023-10-11T13:23:44.893Z,97867.31
2023-10-11T13:26:12.181Z,97869.34
2023-10-11T13:28:42.480Z,97864.34
2023-10-11T13:31:10.890Z,97870.53
2023-10-11T13:33:38.060Z,97861.13
2023-10-11T13:36:09.817Z,97861.94
2023-10-11T13:38:38.556Z,97854.66
2023-10-11T13:41:05.734Z,97851.00
2023-10-11T13:43:33.385Z,97850.06
2023-10-11T13:46:07.560Z,97854.94
2023-10-11T13:48:38.785Z,97852.63
2023-10-11T13:51:08.447Z,97850.19
2023-10-11T13:53:45.495Z,97850.53
2023-10-11T13:56:25.315Z,97838.50
2023-10-11T13:58:54.247Z,97841.91
2023-10-11T14:01:36.950Z,97838.84
2023-10-11T14:04:16.637Z,97838.94
2023-10-11T14:07:03.763Z,97835.63
2023-10-11T14:09:33.652Z,97830.81
2023-10-11T14:12:00.406Z,97834.81
2023-10-11T14:14:31.154Z,97834.00
2023-10-11T14:16:57.938Z,97829.06
2023-10-11T14:19:26.164Z,97828.97
2023-10-11T14:21:53.411Z,97826.00
2023-10-11T14:24:20.570Z,97822.22
2023-10-11T14:26:48.585Z,97821.09
2023-10-11T14:29:17.110Z,97819.66
2023-10-11T14:31:44.191Z,97812.28
2023-10-11T14:34:11.893Z,97807.97
2023-10-11T14:36:42.109Z,97802.41
2023-10-11T14:39:19.313Z,97806.44
2023-10-11T14:41:47.986Z,97798.09
2023-10-11T14:44:14.945Z,97796.16
2023-10-11T14:46:42.485Z,97797.41
2023-10-11T14:49:11.785Z,97790.94
2023-10-11T14:51:40.803Z,97790.66
2023-10-11T14:54:07.568Z,97788.38
2023-10-11T14:56:35.136Z,97789.63
2023-10-11T14:59:02.616Z,97783.19
2023-10-11T15:01:33.066Z,97771.38
2023-10-11T15:04:01.916Z,97772.09
2023-10-11T15:06:28.724Z,97776.91
2023-10-11T15:08:55.386Z,97772.69
2023-10-11T15:11:22.204Z,97774.09
2023-10-11T15:13:48.848Z,97775.44
2023-10-11T15:16:15.712Z,97780.25
2023-10-11T15:18:42.558Z,97784.09
2023-10-11T15:21:09.482Z,97786.78
2023-10-11T15:23:36.112Z,97784.00
2023-10-11T15:26:04.848Z,97781.59
2023-10-11T15:28:32.026Z,97781.22
2023-10-11T15:31:01.415Z,97790.25
2023-10-11T15:33:28.420Z,97787.69
2023-10-11T15:35:59.597Z,97786.25
2023-10-11T15:38:29.609Z,97789.47
2023-10-11T15:41:05.864Z,97789.88
2023-10-11T15:43:37.150Z,97795.72
2023-10-11T15:46:04.653Z,97788.53
2023-10-11T15:48:32.596Z,97791.53
2023-10-11T15:51:10.680Z,97786.31
2023-10-11T15:53:38.518Z,97791.41
2023-10-11T15:56:07.223Z,97794.50
2023-10-11T15:58:34.691Z,97800.97
2023-10-11T16:01:07.557Z,97799.22
2023-10-11T16:03:36.341Z,97795.28
2023-10-11T16:06:03.572Z,97788.59
2023-10-11T16:08:31.247Z,97791.78
2023-10-11T16:11:11.151Z,97799.03
2023-10-11T16:13:38.617Z,97795.31
2023-10-11T16:16:08.649Z,97793.69
2023-10-11T16:18:37.955Z,97797.44
2023-10-11T16:21:04.833Z,97802.56
2023-10-11T16:23:34.876Z,97812.47
2023-10-11T16:26:02.350Z,97803.72
2023-10-11T16:28:30.528Z,97806.75
2023-10-11T16:30:59.260Z,97804.16
2023-10-11T16:33:27.669Z,97812.00
2023-10-11T16:35:54.645Z,97809.50
2023-10-11T16:38:21.423Z,97808.41
2023-10-11T16:40:48.217Z,97810.94
2023-10-11T16:43:14.862Z,97809.28
2023-10-11T16:45:42.257Z,97812.19
2023-10-11T16:48:11.686Z,97826.38
2023-10-11T16:50:39.237Z,97819.19
2023-10-11T16:53:09.231Z,97821.81
2023-10-11T16:55:37.177Z,97829.78
2023-10-11T16:58:04.671Z,97832.19
2023-10-11T17:00:34.941Z,97829.06
2023-10-11T17:03:03.057Z,97830.75
2023-10-11T17:05:35.299Z,97832.53
2023-10-11T17:08:02.420Z,97827.41
2023-10-11T17:10:29.051Z,97824.16
2023-10-11T17:12:56.382Z,97827.41
2023-10-11T17:15:25.422Z,97821.03
2023-10-11T17:17:54.083Z,97828.34
2023-10-11T17:20:22.559Z,97815.13
2023-10-11T17:22:51.566Z,97819.81
2023-10-11T17:25:22.791Z,97819.09
2023-10-11T17:27:50.502Z,97828.69
2023-10-11T17:30:19.344Z,97834.44
2023-10-11T17:32:47.738Z,97836.81
2023-10-11T17:35:16.806Z,97828.75
2023-10-11T17:37:47.582Z,97830.41
2023-10-11T17:40:16.735Z,97830.38
2023-10-11T17:42:43.416Z,97829.97
2023-10-11T17:45:10.718Z,97822.78
2023-10-11T17:47:37.869Z,97832.25
2023-10-11T17:50:07.405Z,97825.16
2023-10-11T17:52:35.001Z,97828.25
2023-10-11T17:55:08.966Z,97824.75
2023-10-11T17:57:41.865Z,97831.50
2023-10-11T18:00:19.670Z,97827.72
2023-10-11T18:02:48.330Z,97825.31
2023-10-11T18:05:16.229Z,97819.09
2023-10-11T18:07:53.539Z,97827.81
2023-10-11T18:10:21.855Z,97830.31
2023-10-11T18:12:49.729Z,97826.16
2023-10-11T18:15:17.705Z,97825.59
2023-10-11T18:17:47.676Z,97831.75
2023-10-11T18:20:17.464Z,97822.16
2023-10-11T18:22:45.541Z,97822.63
2023-10-11T18:25:17.532Z,97826.44
2023-10-11T18:27:45.696Z,97824.97
2023-10-11T18:30:13.578Z,97826.88
2023-10-11T18:32:41.757Z,97830.69
2023-10-11T18:35:09.100Z,97829.97
2023-10-11T18:37:36.274Z,97824.44
2023-10-11T18:40:19.483Z,97830.28
2023-10-11T18:42:56.063Z,97823.31
2023-10-11T18:45:23.739Z,97823.78
2023-10-11T18:47:55.111Z,97829.63
2023-10-11T18:50:22.985Z,97825.44
2023-10-11T18:52:54.315Z,97819.06
2023-10-11T18:55:22.916Z,97818.34
2023-10-11T18:57:50.312Z,97824.03
2023-10-11T19:00:19.102Z,97816.50
2023-10-11T19:02:50.766Z,97819.97
2023-10-11T19:05:20.975Z,97816.34
2023-10-11T19:07:51.588Z,97818.22
2023-10-11T19:10:20.052Z,97823.47
2023-10-11T19:12:51.483Z,97823.81
2023-10-11T19:15:19.039Z,97817.88
2023-10-11T19:17:51.945Z,97821.94
2023-10-11T19:20:20.146Z,97822.66
2023-10-11T19:22:49.399Z,97820.50
2023-10-11T19:25:17.677Z,97823.88
2023-10-11T19:27:45.268Z,97817.97
2023-10-11T19:30:17.973Z,97819.44
2023-10-11T19:32:45.461Z,97815.84
2023-10-11T19:35:15.808Z,97814.81
2023-10-11T19:37:44.179Z,97820.91
2023-10-11T19:40:16.889Z,97819.75
2023-10-11T19:42:45.830Z,97817.56
2023-10-11T19:45:19.953Z,97825.69
2023-10-11T19:47:48.294Z,97817.88
2023-10-11T19:50:16.466Z,97818.47
2023-10-11T19:52:49.377Z,97818.78
2023-10-11T19:55:19.116Z,97816.16
2023-10-11T19:57:52.928Z,97823.13
2023-10-11T20:00:21.920Z,97818.47
2023-10-11T20:02:53.090Z,97819.66
2023-10-11T20:05:20.565Z,97818.06
2023-10-11T20:07:50.722Z,97827.03
2023-10-11T20:10:17.920Z,97820.06
2023-10-11T20:12:46.858Z,97833.97
2023-10-11T20:15:14.786Z,97823.53
2023-10-11T20:17:45.915Z,97830.34
2023-10-11T20:20:13.864Z,97828.06
2023-10-11T20:22:41.651Z,97824.44
2023-10-11T20:25:12.042Z,97818.66
2023-10-11T20:27:40.696Z,97824.88
2023-10-11T20:30:08.848Z,97821.56
2023-10-11T20:32:36.724Z,97822.72
2023-10-11T20:35:09.973Z,97814.31
2023-10-11T20:37:37.237Z,97817.94
2023-10-11T20:40:14.517Z,97815.03
2023-10-11T20:42:43.613Z,97813.31
2023-10-11T20:45:16.522Z,97809.56
2023-10-11T20:47:43.967Z,97818.09
2023-10-11T20:50:18.979Z,97815.78
2023-10-11T20:52:52.592Z,97814.34
2023-10-11T20:55:24.183Z,97812.59
2023-10-11T20:58:15.754Z,97813.63
2023-10-11T21:00:45.025Z,97812.03
2023-10-11T21:03:13.727Z,97806.09
2023-10-11T21:05:46.412Z,97815.78
2023-10-11T21:08:14.468Z,97805.78
2023-10-11T21:10:47.106Z,97806.81
2023-10-11T21:13:19.712Z,97805.50
2023-10-11T21:15:48.426Z,97800.03
2023-10-11T21:18:16.392Z,97802.34
2023-10-11T21:20:46.033Z,97801.59
2023-10-11T21:23:17.074Z,97807.69
2023-10-11T21:25:48.102Z,97800.31
2023-10-11T21:28:17.826Z,97802.47
2023-10-11T21:30:45.179Z,97796.97
2023-10-11T21:33:15.438Z,97794.78
2023-10-11T21:35:45.609Z,97791.91
2023-10-11T21:38:12.505Z,97796.97
2023-10-11T21:40:41.526Z,97788.25
2023-10-11T21:43:12.494Z,97799.69
2023-10-11T21:45:39.922Z,97803.16
2023-10-11T21:48:07.839Z,97806.41
2023-10-11T21:50:34.817Z,97796.84
2023-10-11T21:53:01.502Z,97801.34
2023-10-11T21:55:28.465Z,97809.00
2023-10-11T21:57:58.577Z,97799.63
2023-10-11T22:00:46.540Z,97796.88
2023-10-11T22:03:21.411Z,97798.59
2023-10-11T22:05:51.574Z,97790.72
2023-10-11T22:08:23.415Z,97793.47
2023-10-11T22:10:52.476Z,97795.88
2023-10-11T22:13:21.654Z,97791.69
2023-10-11T22:15:49.445Z,97793.06
2023-10-11T22:18:19.678Z,97785.72
2023-10-11T22:20:46.443Z,97788.19
2023-10-11T22:23:13.550Z,97796.44
2023-10-11T22:25:42.338Z,97784.31
2023-10-11T22:28:09.536Z,97779.97
2023-10-11T22:30:41.467Z,97784.44
2023-10-11T22:33:11.329Z,97781.00
2023-10-11T22:35:39.582Z,97786.81
2023-10-11T22:38:08.106Z,97782.78
2023-10-11T22:40:38.255Z,97777.72
2023-10-11T22:43:17.131Z,97774.81
2023-10-11T22:45:51.552Z,97773.91
2023-10-11T22:48:20.727Z,97773.19
2023-10-11T22:50:47.629Z,97770.56
2023-10-11T22:53:14.817Z,97768.25
2023-10-11T22:55:42.562Z,97762.75
2023-10-11T22:58:09.405Z,97767.38
2023-10-11T23:00:36.827Z,97764.66
2023-10-11T23:03:03.960Z,97770.84
2023-10-11T23:05:33.977Z,97776.06
2023-10-11T23:08:00.676Z,97768.66
2023-10-11T23:10:28.277Z,97778.03
2023-10-11T23:12:57.930Z,97767.22
2023-10-11T23:15:29.812Z,97773.84
2023-10-11T23:17:58.630Z,97766.63
2023-10-11T23:20:39.158Z,97771.66
2023-10-11T23:23:30.609Z,97762.56
2023-10-11T23:26:06.056Z,97762.84
2023-10-11T23:28:40.214Z,97757.78
2023-10-11T23:31:11.994Z,97761.22
2023-10-11T23:33:50.209Z,97754.72
2023-10-11T23:36:24.442Z,97756.28
2023-10-11T23:39:01.401Z,97756.28
2023-10-11T23:41:45.883Z,97755.69
2023-10-11T23:44:21.262Z,97757.59
2023-10-11T23:47:11.148Z,97761.47
2023-10-11T23:49:42.777Z,97756.81
2023-10-11T23:52:14.645Z,97759.56
2023-10-11T23:54:43.162Z,97749.00
2023-10-11T23:57:23.582Z,97751.28
2023-10-11T23:59:50.856Z,97747.41
